Terminal Aerodrome Forecast
Issued by NWS Riverton, WY

Home | Current Version | Previous Version | Text Only | Print | Product List | Glossary On
Versions: 1 2 3 4 5 6 7 8 9 10 11 12 13 14
000
FTUS45 KRIW 280500
TAFRIW
TAF
KRIW 280525Z 2806/2906 VRB05KT P6SM FEW090 BKN120
     FM280800 30006KT P6SM VCFG FEW007 SCT120
     FM281600 26006KT P6SM FEW090
     FM290400 31009KT P6SM FEW110 SCT250=

USA.gov is the U.S. government's official web portal to all federal, state and local government web resources and services.